sensor_id;sensor_type;location;lat;lon;timestamp;temperature;humidity
7445;DHT22;3764;48.126;11.594;2023-04-08T00:00:55;7.40;99.90
7445;DHT22;3764;48.126;11.594;2023-04-08T00:03:22;7.40;99.90
7445;DHT22;3764;48.126;11.594;2023-04-08T00:05:49;7.40;99.90
7445;DHT22;3764;48.126;11.594;2023-04-08T00:08:16;7.40;99.90
7445;DHT22;3764;48.126;11.594;2023-04-08T00:10:45;7.50;99.90
7445;DHT22;3764;48.126;11.594;2023-04-08T00:13:12;7.50;99.90
7445;DHT22;3764;48.126;11.594;2023-04-08T00:15:40;7.50;99.90
7445;DHT22;3764;48.126;11.594;2023-04-08T00:18:07;7.50;99.90
7445;DHT22;3764;48.126;11.594;2023-04-08T00:20:34;7.50;99.90
7445;DHT22;3764;48.126;11.594;2023-04-08T00:23:01;7.40;99.90
7445;DHT22;3764;48.126;11.594;2023-04-08T00:25:29;7.40;99.90
7445;DHT22;3764;48.126;11.594;2023-04-08T00:27:58;7.50;99.90
7445;DHT22;3764;48.126;11.594;2023-04-08T00:30:25;7.40;99.90
7445;DHT22;3764;48.126;11.594;2023-04-08T00:32:53;7.40;99.90
7445;DHT22;3764;48.126;11.594;2023-04-08T00:35:20;7.50;99.90
7445;DHT22;3764;48.126;11.594;2023-04-08T00:37:47;7.50;99.90
7445;DHT22;3764;48.126;11.594;2023-04-08T00:40:14;7.40;99.90
7445;DHT22;3764;48.126;11.594;2023-04-08T00:42:41;7.40;99.90
7445;DHT22;3764;48.126;11.594;2023-04-08T00:45:10;7.40;99.90
7445;DHT22;3764;48.126;11.594;2023-04-08T00:47:38;7.40;99.90
7445;DHT22;3764;48.126;11.594;2023-04-08T00:50:07;7.30;99.90
7445;DHT22;3764;48.126;11.594;2023-04-08T00:52:35;7.40;99.90
7445;DHT22;3764;48.126;11.594;2023-04-08T00:55:03;7.40;99.90
7445;DHT22;3764;48.126;11.594;2023-04-08T00:57:30;7.30;99.90
7445;DHT22;3764;48.126;11.594;2023-04-08T00:59:58;7.30;99.90
7445;DHT22;3764;48.126;11.594;2023-04-08T01:02:33;7.30;99.90
7445;DHT22;3764;48.126;11.594;2023-04-08T01:05:05;7.30;99.90
7445;DHT22;3764;48.126;11.594;2023-04-08T01:07:35;7.30;99.90
7445;DHT22;3764;48.126;11.594;2023-04-08T01:10:06;7.20;99.90
7445;DHT22;3764;48.126;11.594;2023-04-08T01:12:42;7.20;99.90
7445;DHT22;3764;48.126;11.594;2023-04-08T01:15:11;7.20;99.90
7445;DHT22;3764;48.126;11.594;2023-04-08T01:17:39;7.10;99.90
7445;DHT22;3764;48.126;11.594;2023-04-08T01:20:08;7.10;99.90
7445;DHT22;3764;48.126;11.594;2023-04-08T01:22:43;7.10;99.90
7445;DHT22;3764;48.126;11.594;2023-04-08T01:25:16;7.10;99.90
7445;DHT22;3764;48.126;11.594;2023-04-08T01:27:47;7.00;99.90
7445;DHT22;3764;48.126;11.594;2023-04-08T01:30:18;7.00;99.90
7445;DHT22;3764;48.126;11.594;2023-04-08T01:32:46;7.00;99.90
7445;DHT22;3764;48.126;11.594;2023-04-08T01:35:14;7.00;99.90
7445;DHT22;3764;48.126;11.594;2023-04-08T01:37:42;6.90;99.90
7445;DHT22;3764;48.126;11.594;2023-04-08T01:40:11;6.90;99.90
7445;DHT22;3764;48.126;11.594;2023-04-08T01:42:38;6.90;99.90
7445;DHT22;3764;48.126;11.594;2023-04-08T01:45:09;6.80;99.90
7445;DHT22;3764;48.126;11.594;2023-04-08T01:47:37;6.80;99.90
7445;DHT22;3764;48.126;11.594;2023-04-08T01:50:07;6.80;99.90
7445;DHT22;3764;48.126;11.594;2023-04-08T01:52:36;6.70;99.90
7445;DHT22;3764;48.126;11.594;2023-04-08T01:55:05;6.80;99.90
7445;DHT22;3764;48.126;11.594;2023-04-08T01:57:36;6.80;99.90
7445;DHT22;3764;48.126;11.594;2023-04-08T02:00:08;6.80;99.90
7445;DHT22;3764;48.126;11.594;2023-04-08T02:02:36;6.70;99.90
7445;DHT22;3764;48.126;11.594;2023-04-08T02:05:04;6.60;99.90
7445;DHT22;3764;48.126;11.594;2023-04-08T02:07:32;6.50;99.90
7445;DHT22;3764;48.126;11.594;2023-04-08T02:09:59;6.50;99.90
7445;DHT22;3764;48.126;11.594;2023-04-08T02:12:26;6.50;99.90
7445;DHT22;3764;48.126;11.594;2023-04-08T02:14:54;6.50;99.90
7445;DHT22;3764;48.126;11.594;2023-04-08T02:17:28;6.50;99.90
7445;DHT22;3764;48.126;11.594;2023-04-08T02:20:03;6.60;99.90
7445;DHT22;3764;48.126;11.594;2023-04-08T02:22:37;6.60;99.90
7445;DHT22;3764;48.126;11.594;2023-04-08T02:25:15;6.60;99.90
7445;DHT22;3764;48.126;11.594;2023-04-08T02:27:44;6.60;99.90
7445;DHT22;3764;48.126;11.594;2023-04-08T02:30:14;6.60;99.90
7445;DHT22;3764;48.126;11.594;2023-04-08T02:32:44;6.60;99.90
7445;DHT22;3764;48.126;11.594;2023-04-08T02:35:13;6.60;99.90
7445;DHT22;3764;48.126;11.594;2023-04-08T02:37:41;6.60;99.90
7445;DHT22;3764;48.126;11.594;2023-04-08T02:40:24;6.60;99.90
7445;DHT22;3764;48.126;11.594;2023-04-08T02:42:51;6.50;99.90
7445;DHT22;3764;48.126;11.594;2023-04-08T02:45:18;6.50;99.90
7445;DHT22;3764;48.126;11.594;2023-04-08T02:47:47;6.50;99.90
7445;DHT22;3764;48.126;11.594;2023-04-08T02:50:14;6.50;99.90
7445;DHT22;3764;48.126;11.594;2023-04-08T02:52:41;6.40;99.90
7445;DHT22;3764;48.126;11.594;2023-04-08T02:55:09;6.40;99.90
7445;DHT22;3764;48.126;11.594;2023-04-08T02:57:39;6.40;99.90
7445;DHT22;3764;48.126;11.594;2023-04-08T03:00:07;6.40;99.90
7445;DHT22;3764;48.126;11.594;2023-04-08T03:02:35;6.40;99.90
7445;DHT22;3764;48.126;11.594;2023-04-08T03:05:04;6.40;99.90
7445;DHT22;3764;48.126;11.594;2023-04-08T03:07:31;6.20;99.90
7445;DHT22;3764;48.126;11.594;2023-04-08T03:09:59;6.20;99.90
7445;DHT22;3764;48.126;11.594;2023-04-08T03:12:26;6.30;99.90
7445;DHT22;3764;48.126;11.594;2023-04-08T03:14:53;6.30;99.90
7445;DHT22;3764;48.126;11.594;2023-04-08T03:17:20;6.30;99.90
7445;DHT22;3764;48.126;11.594;2023-04-08T03:19:47;6.30;99.90
7445;DHT22;3764;48.126;11.594;2023-04-08T03:22:16;6.40;99.90
7445;DHT22;3764;48.126;11.594;2023-04-08T03:24:43;6.30;99.90
7445;DHT22;3764;48.126;11.594;2023-04-08T03:27:10;6.30;99.90
7445;DHT22;3764;48.126;11.594;2023-04-08T03:29:37;6.20;99.90
7445;DHT22;3764;48.126;11.594;2023-04-08T03:32:04;6.30;99.90
7445;DHT22;3764;48.126;11.594;2023-04-08T03:34:33;6.30;99.90
7445;DHT22;3764;48.126;11.594;2023-04-08T03:37:00;6.20;99.90
7445;DHT22;3764;48.126;11.594;2023-04-08T03:39:28;6.30;99.90
7445;DHT22;3764;48.126;11.594;2023-04-08T03:41:56;6.20;99.90
7445;DHT22;3764;48.126;11.594;2023-04-08T03:44:25;6.20;99.90
7445;DHT22;3764;48.126;11.594;2023-04-08T03:46:52;6.30;99.90
7445;DHT22;3764;48.126;11.594;2023-04-08T03:49:19;6.30;99.90
7445;DHT22;3764;48.126;11.594;2023-04-08T03:51:47;6.30;99.90
7445;DHT22;3764;48.126;11.594;2023-04-08T03:54:14;6.30;99.90
7445;DHT22;3764;48.126;11.594;2023-04-08T03:56:42;6.30;99.90
7445;DHT22;3764;48.126;11.594;2023-04-08T03:59:09;6.30;99.90
7445;DHT22;3764;48.126;11.594;2023-04-08T04:01:36;6.40;99.90
7445;DHT22;3764;48.126;11.594;2023-04-08T04:04:03;6.30;99.90
7445;DHT22;3764;48.126;11.594;2023-04-08T04:06:31;6.30;99.90
7445;DHT22;3764;48.126;11.594;2023-04-08T04:08:58;6.30;99.90
7445;DHT22;3764;48.126;11.594;2023-04-08T04:11:25;6.30;99.90
7445;DHT22;3764;48.126;11.594;2023-04-08T04:13:53;6.30;99.90
7445;DHT22;3764;48.126;11.594;2023-04-08T04:16:20;6.40;99.90
7445;DHT22;3764;48.126;11.594;2023-04-08T04:18:47;6.40;99.90
7445;DHT22;3764;48.126;11.594;2023-04-08T04:21:15;6.40;99.90
7445;DHT22;3764;48.126;11.594;2023-04-08T04:23:42;6.30;99.90
7445;DHT22;3764;48.126;11.594;2023-04-08T04:26:09;6.40;99.90
7445;DHT22;3764;48.126;11.594;2023-04-08T04:28:37;6.30;99.90
7445;DHT22;3764;48.126;11.594;2023-04-08T04:31:05;6.40;99.90
7445;DHT22;3764;48.126;11.594;2023-04-08T04:33:32;6.40;99.90
7445;DHT22;3764;48.126;11.594;2023-04-08T04:35:59;6.30;99.90
7445;DHT22;3764;48.126;11.594;2023-04-08T04:38:26;6.40;99.90
7445;DHT22;3764;48.126;11.594;2023-04-08T04:40:53;6.40;99.90
7445;DHT22;3764;48.126;11.594;2023-04-08T04:43:20;6.40;99.90
7445;DHT22;3764;48.126;11.594;2023-04-08T04:45:47;6.40;99.90
7445;DHT22;3764;48.126;11.594;2023-04-08T04:48:16;6.40;99.90
7445;DHT22;3764;48.126;11.594;2023-04-08T04:50:43;6.40;99.90
7445;DHT22;3764;48.126;11.594;2023-04-08T04:53:10;6.40;99.90
7445;DHT22;3764;48.126;11.594;2023-04-08T04:55:37;6.40;99.90
7445;DHT22;3764;48.126;11.594;2023-04-08T04:58:04;6.40;99.90
7445;DHT22;3764;48.126;11.594;2023-04-08T05:00:31;6.40;99.90
7445;DHT22;3764;48.126;11.594;2023-04-08T05:02:58;6.40;99.90
7445;DHT22;3764;48.126;11.594;2023-04-08T05:05:27;6.40;99.90
7445;DHT22;3764;48.126;11.594;2023-04-08T05:07:54;6.50;99.90
7445;DHT22;3764;48.126;11.594;2023-04-08T05:10:21;6.50;99.90
7445;DHT22;3764;48.126;11.594;2023-04-08T05:12:48;6.50;99.90
7445;DHT22;3764;48.126;11.594;2023-04-08T05:15:15;6.60;99.90
7445;DHT22;3764;48.126;11.594;2023-04-08T05:17:42;6.60;99.90
7445;DHT22;3764;48.126;11.594;2023-04-08T05:20:09;6.60;99.90
7445;DHT22;3764;48.126;11.594;2023-04-08T05:22:38;6.60;99.90
7445;DHT22;3764;48.126;11.594;2023-04-08T05:25:06;6.70;99.90
7445;DHT22;3764;48.126;11.594;2023-04-08T05:27:33;6.70;99.90
7445;DHT22;3764;48.126;11.594;2023-04-08T05:30:00;6.60;99.90
7445;DHT22;3764;48.126;11.594;2023-04-08T05:32:28;6.70;99.90
7445;DHT22;3764;48.126;11.594;2023-04-08T05:34:55;6.70;99.90
7445;DHT22;3764;48.126;11.594;2023-04-08T05:37:22;6.70;99.90
7445;DHT22;3764;48.126;11.594;2023-04-08T05:39:51;6.70;99.90
7445;DHT22;3764;48.126;11.594;2023-04-08T05:42:18;6.70;99.90
7445;DHT22;3764;48.126;11.594;2023-04-08T05:44:45;6.70;99.90
7445;DHT22;3764;48.126;11.594;2023-04-08T05:47:12;6.70;99.90
7445;DHT22;3764;48.126;11.594;2023-04-08T05:49:39;6.70;99.90
7445;DHT22;3764;48.126;11.594;2023-04-08T05:52:06;6.70;99.90
7445;DHT22;3764;48.126;11.594;2023-04-08T05:54:33;6.70;99.90
7445;DHT22;3764;48.126;11.594;2023-04-08T05:57:02;6.70;99.90
7445;DHT22;3764;48.126;11.594;2023-04-08T05:59:29;6.70;99.90
7445;DHT22;3764;48.126;11.594;2023-04-08T06:01:56;6.70;99.90
7445;DHT22;3764;48.126;11.594;2023-04-08T06:04:23;6.80;99.90
7445;DHT22;3764;48.126;11.594;2023-04-08T06:06:50;6.80;99.90
7445;DHT22;3764;48.126;11.594;2023-04-08T06:09:17;6.80;99.90
7445;DHT22;3764;48.126;11.594;2023-04-08T06:11:44;6.80;99.90
7445;DHT22;3764;48.126;11.594;2023-04-08T06:14:13;6.80;99.90
7445;DHT22;3764;48.126;11.594;2023-04-08T06:16:40;6.90;99.90
7445;DHT22;3764;48.126;11.594;2023-04-08T06:19:07;6.90;99.90
7445;DHT22;3764;48.126;11.594;2023-04-08T06:21:34;6.90;99.90
7445;DHT22;3764;48.126;11.594;2023-04-08T06:24:01;6.90;99.90
7445;DHT22;3764;48.126;11.594;2023-04-08T06:26:28;6.90;99.90
7445;DHT22;3764;48.126;11.594;2023-04-08T06:28:55;6.90;99.90
7445;DHT22;3764;48.126;11.594;2023-04-08T06:31:24;6.90;99.90
7445;DHT22;3764;48.126;11.594;2023-04-08T06:33:51;6.90;99.90
7445;DHT22;3764;48.126;11.594;2023-04-08T06:36:18;7.00;99.90
7445;DHT22;3764;48.126;11.594;2023-04-08T06:38:45;7.00;99.90
7445;DHT22;3764;48.126;11.594;2023-04-08T06:41:12;7.10;99.90
7445;DHT22;3764;48.126;11.594;2023-04-08T06:43:39;7.10;99.90
7445;DHT22;3764;48.126;11.594;2023-04-08T06:46:06;7.10;99.90
7445;DHT22;3764;48.126;11.594;2023-04-08T06:48:35;7.10;99.90
7445;DHT22;3764;48.126;11.594;2023-04-08T06:51:02;7.10;99.90
7445;DHT22;3764;48.126;11.594;2023-04-08T06:53:29;7.10;99.90
7445;DHT22;3764;48.126;11.594;2023-04-08T06:55:58;7.20;99.90
7445;DHT22;3764;48.126;11.594;2023-04-08T06:58:25;7.10;99.90
7445;DHT22;3764;48.126;11.594;2023-04-08T07:00:52;7.20;99.90
7445;DHT22;3764;48.126;11.594;2023-04-08T07:03:20;7.20;99.90
7445;DHT22;3764;48.126;11.594;2023-04-08T07:05:49;7.10;99.90
7445;DHT22;3764;48.126;11.594;2023-04-08T07:08:16;7.10;99.90
7445;DHT22;3764;48.126;11.594;2023-04-08T07:10:43;7.10;99.90
7445;DHT22;3764;48.126;11.594;2023-04-08T07:13:10;7.10;99.90
7445;DHT22;3764;48.126;11.594;2023-04-08T07:15:37;7.10;99.90
7445;DHT22;3764;48.126;11.594;2023-04-08T07:18:05;7.10;99.90
7445;DHT22;3764;48.126;11.594;2023-04-08T07:20:32;7.10;99.90
7445;DHT22;3764;48.126;11.594;2023-04-08T07:23:04;7.10;99.90
7445;DHT22;3764;48.126;11.594;2023-04-08T07:25:32;7.10;99.90
7445;DHT22;3764;48.126;11.594;2023-04-08T07:28:00;7.10;99.90
7445;DHT22;3764;48.126;11.594;2023-04-08T07:30:27;7.10;99.90
7445;DHT22;3764;48.126;11.594;2023-04-08T07:32:54;7.10;99.90
7445;DHT22;3764;48.126;11.594;2023-04-08T07:35:22;7.10;99.90
7445;DHT22;3764;48.126;11.594;2023-04-08T07:37:50;7.10;99.90
7445;DHT22;3764;48.126;11.594;2023-04-08T07:40:19;7.10;99.90
7445;DHT22;3764;48.126;11.594;2023-04-08T07:42:46;7.10;99.90
7445;DHT22;3764;48.126;11.594;2023-04-08T07:45:14;7.10;99.90
7445;DHT22;3764;48.126;11.594;2023-04-08T07:47:41;7.10;99.90
7445;DHT22;3764;48.126;11.594;2023-04-08T07:50:08;7.10;99.90
7445;DHT22;3764;48.126;11.594;2023-04-08T07:52:36;7.00;99.90
7445;DHT22;3764;48.126;11.594;2023-04-08T07:55:04;7.00;99.90
7445;DHT22;3764;48.126;11.594;2023-04-08T07:57:33;6.90;99.90
7445;DHT22;3764;48.126;11.594;2023-04-08T08:00:00;6.90;99.90
7445;DHT22;3764;48.126;11.594;2023-04-08T08:02:28;6.90;99.90
7445;DHT22;3764;48.126;11.594;2023-04-08T08:04:55;6.90;99.90
7445;DHT22;3764;48.126;11.594;2023-04-08T08:07:22;6.90;99.90
7445;DHT22;3764;48.126;11.594;2023-04-08T08:09:49;6.90;99.90
7445;DHT22;3764;48.126;11.594;2023-04-08T08:12:16;7.00;99.90
7445;DHT22;3764;48.126;11.594;2023-04-08T08:14:44;7.00;99.90
7445;DHT22;3764;48.126;11.594;2023-04-08T08:17:11;7.00;99.90
7445;DHT22;3764;48.126;11.594;2023-04-08T08:19:39;7.00;99.90
7445;DHT22;3764;48.126;11.594;2023-04-08T08:22:06;7.10;99.90
7445;DHT22;3764;48.126;11.594;2023-04-08T08:24:33;7.00;99.90
7445;DHT22;3764;48.126;11.594;2023-04-08T08:27:00;7.00;99.90
7445;DHT22;3764;48.126;11.594;2023-04-08T08:29:29;7.00;99.90
7445;DHT22;3764;48.126;11.594;2023-04-08T08:31:57;7.10;99.90
7445;DHT22;3764;48.126;11.594;2023-04-08T08:34:24;7.00;99.90
7445;DHT22;3764;48.126;11.594;2023-04-08T08:36:51;7.00;99.90
7445;DHT22;3764;48.126;11.594;2023-04-08T08:39:18;7.00;99.90
7445;DHT22;3764;48.126;11.594;2023-04-08T08:41:45;7.00;99.90
7445;DHT22;3764;48.126;11.594;2023-04-08T08:44:13;6.90;99.90
7445;DHT22;3764;48.126;11.594;2023-04-08T08:46:43;6.80;99.90
7445;DHT22;3764;48.126;11.594;2023-04-08T08:49:12;6.80;99.90
7445;DHT22;3764;48.126;11.594;2023-04-08T08:51:39;6.70;99.90
7445;DHT22;3764;48.126;11.594;2023-04-08T08:54:07;6.70;99.90
7445;DHT22;3764;48.126;11.594;2023-04-08T08:56:34;6.70;99.90
7445;DHT22;3764;48.126;11.594;2023-04-08T08:59:01;6.60;99.90
7445;DHT22;3764;48.126;11.594;2023-04-08T09:01:32;6.70;99.90
7445;DHT22;3764;48.126;11.594;2023-04-08T09:04:07;6.70;99.90
7445;DHT22;3764;48.126;11.594;2023-04-08T09:06:36;6.70;99.90
7445;DHT22;3764;48.126;11.594;2023-04-08T09:09:04;6.70;99.90
7445;DHT22;3764;48.126;11.594;2023-04-08T09:11:35;6.70;99.90
7445;DHT22;3764;48.126;11.594;2023-04-08T09:14:03;6.70;99.90
7445;DHT22;3764;48.126;11.594;2023-04-08T09:16:32;6.70;99.90
7445;DHT22;3764;48.126;11.594;2023-04-08T09:19:10;6.60;99.90
7445;DHT22;3764;48.126;11.594;2023-04-08T09:21:39;6.60;99.90
7445;DHT22;3764;48.126;11.594;2023-04-08T09:24:07;6.50;99.90
7445;DHT22;3764;48.126;11.594;2023-04-08T09:26:35;6.50;99.90
7445;DHT22;3764;48.126;11.594;2023-04-08T09:29:04;6.60;99.90
7445;DHT22;3764;48.126;11.594;2023-04-08T09:31:33;6.50;99.90
7445;DHT22;3764;48.126;11.594;2023-04-08T09:34:09;6.50;99.90
7445;DHT22;3764;48.126;11.594;2023-04-08T09:36:37;6.50;99.90
7445;DHT22;3764;48.126;11.594;2023-04-08T09:39:06;6.50;99.90
7445;DHT22;3764;48.126;11.594;2023-04-08T09:41:34;6.50;99.90
7445;DHT22;3764;48.126;11.594;2023-04-08T09:44:03;6.50;99.90
7445;DHT22;3764;48.126;11.594;2023-04-08T09:46:34;6.40;99.90
7445;DHT22;3764;48.126;11.594;2023-04-08T09:49:05;6.50;99.90
7445;DHT22;3764;48.126;11.594;2023-04-08T09:51:38;6.50;99.90
7445;DHT22;3764;48.126;11.594;2023-04-08T09:54:12;6.50;99.90
7445;DHT22;3764;48.126;11.594;2023-04-08T09:56:43;6.50;99.90
7445;DHT22;3764;48.126;11.594;2023-04-08T09:59:14;6.40;99.90
7445;DHT22;3764;48.126;11.594;2023-04-08T10:01:46;6.40;99.90
7445;DHT22;3764;48.126;11.594;2023-04-08T10:04:19;6.40;99.90
7445;DHT22;3764;48.126;11.594;2023-04-08T10:06:51;6.40;99.90
7445;DHT22;3764;48.126;11.594;2023-04-08T10:09:21;6.40;99.90
7445;DHT22;3764;48.126;11.594;2023-04-08T10:11:49;6.40;99.90
7445;DHT22;3764;48.126;11.594;2023-04-08T10:14:16;6.50;99.90
7445;DHT22;3764;48.126;11.594;2023-04-08T10:16:43;6.50;99.90
7445;DHT22;3764;48.126;11.594;2023-04-08T10:19:36;6.50;99.90
7445;DHT22;3764;48.126;11.594;2023-04-08T10:22:44;6.60;99.90
7445;DHT22;3764;48.126;11.594;2023-04-08T10:25:30;6.70;99.90
7445;DHT22;3764;48.126;11.594;2023-04-08T10:27:58;6.70;99.90
7445;DHT22;3764;48.126;11.594;2023-04-08T10:30:44;6.80;99.90
7445;DHT22;3764;48.126;11.594;2023-04-08T10:33:12;6.90;99.90
7445;DHT22;3764;48.126;11.594;2023-04-08T10:35:42;6.90;99.90
7445;DHT22;3764;48.126;11.594;2023-04-08T10:38:12;6.90;99.90
7445;DHT22;3764;48.126;11.594;2023-04-08T10:40:41;6.90;99.90
7445;DHT22;3764;48.126;11.594;2023-04-08T10:43:09;6.90;99.90
7445;DHT22;3764;48.126;11.594;2023-04-08T10:45:36;7.00;99.90
7445;DHT22;3764;48.126;11.594;2023-04-08T10:48:14;7.00;99.90
7445;DHT22;3764;48.126;11.594;2023-04-08T10:50:43;7.00;99.90
7445;DHT22;3764;48.126;11.594;2023-04-08T10:53:10;7.10;99.90
7445;DHT22;3764;48.126;11.594;2023-04-08T10:55:37;7.10;99.90
7445;DHT22;3764;48.126;11.594;2023-04-08T10:58:06;7.10;99.90
7445;DHT22;3764;48.126;11.594;2023-04-08T11:00:35;7.00;99.90
7445;DHT22;3764;48.126;11.594;2023-04-08T11:03:03;7.00;99.90
7445;DHT22;3764;48.126;11.594;2023-04-08T11:05:31;7.00;99.90
7445;DHT22;3764;48.126;11.594;2023-04-08T11:07:59;7.00;99.90
7445;DHT22;3764;48.126;11.594;2023-04-08T11:10:28;7.00;99.90
7445;DHT22;3764;48.126;11.594;2023-04-08T11:12:56;7.00;99.90
7445;DHT22;3764;48.126;11.594;2023-04-08T11:15:25;7.00;99.90
7445;DHT22;3764;48.126;11.594;2023-04-08T11:17:54;7.00;99.90
7445;DHT22;3764;48.126;11.594;2023-04-08T11:20:21;7.00;99.90
7445;DHT22;3764;48.126;11.594;2023-04-08T11:22:49;7.00;99.90
7445;DHT22;3764;48.126;11.594;2023-04-08T11:25:16;7.00;99.90
7445;DHT22;3764;48.126;11.594;2023-04-08T11:27:44;6.90;99.90
7445;DHT22;3764;48.126;11.594;2023-04-08T11:30:11;6.90;99.90
7445;DHT22;3764;48.126;11.594;2023-04-08T11:32:40;6.90;99.90
7445;DHT22;3764;48.126;11.594;2023-04-08T11:35:07;6.90;99.90
7445;DHT22;3764;48.126;11.594;2023-04-08T11:37:38;6.90;99.90
7445;DHT22;3764;48.126;11.594;2023-04-08T11:40:07;6.80;99.90
7445;DHT22;3764;48.126;11.594;2023-04-08T11:42:35;6.90;99.90
7445;DHT22;3764;48.126;11.594;2023-04-08T11:45:09;6.90;99.90
7445;DHT22;3764;48.126;11.594;2023-04-08T11:47:36;6.80;99.90
7445;DHT22;3764;48.126;11.594;2023-04-08T11:50:06;6.80;99.90
7445;DHT22;3764;48.126;11.594;2023-04-08T11:52:41;6.80;99.90
7445;DHT22;3764;48.126;11.594;2023-04-08T11:55:09;6.80;99.90
7445;DHT22;3764;48.126;11.594;2023-04-08T11:57:36;6.70;99.90
7445;DHT22;3764;48.126;11.594;2023-04-08T12:00:04;6.70;99.90
7445;DHT22;3764;48.126;11.594;2023-04-08T12:02:32;6.70;99.90
7445;DHT22;3764;48.126;11.594;2023-04-08T12:04:59;6.70;99.90
7445;DHT22;3764;48.126;11.594;2023-04-08T12:07:28;6.70;99.90
7445;DHT22;3764;48.126;11.594;2023-04-08T12:09:55;6.70;99.90
7445;DHT22;3764;48.126;11.594;2023-04-08T12:12:22;6.70;99.90
7445;DHT22;3764;48.126;11.594;2023-04-08T12:14:50;6.70;99.90
7445;DHT22;3764;48.126;11.594;2023-04-08T12:17:17;6.70;99.90
7445;DHT22;3764;48.126;11.594;2023-04-08T12:19:44;6.70;99.90
7445;DHT22;3764;48.126;11.594;2023-04-08T12:22:11;6.60;99.90
7445;DHT22;3764;48.126;11.594;2023-04-08T12:24:39;6.60;99.90
7445;DHT22;3764;48.126;11.594;2023-04-08T12:27:07;6.60;99.90
7445;DHT22;3764;48.126;11.594;2023-04-08T12:29:34;6.60;99.90
7445;DHT22;3764;48.126;11.594;2023-04-08T12:32:01;6.60;99.90
7445;DHT22;3764;48.126;11.594;2023-04-08T12:34:29;6.50;99.90
7445;DHT22;3764;48.126;11.594;2023-04-08T12:36:56;6.50;99.90
7445;DHT22;3764;48.126;11.594;2023-04-08T12:39:23;6.50;99.90
7445;DHT22;3764;48.126;11.594;2023-04-08T12:41:51;6.50;99.90
7445;DHT22;3764;48.126;11.594;2023-04-08T12:44:19;6.50;99.90
7445;DHT22;3764;48.126;11.594;2023-04-08T12:46:46;6.50;99.90
7445;DHT22;3764;48.126;11.594;2023-04-08T12:49:13;6.50;99.90
7445;DHT22;3764;48.126;11.594;2023-04-08T12:51:40;6.50;99.90
7445;DHT22;3764;48.126;11.594;2023-04-08T12:54:07;6.50;99.90
7445;DHT22;3764;48.126;11.594;2023-04-08T12:56:34;6.50;99.90
7445;DHT22;3764;48.126;11.594;2023-04-08T12:59:02;6.40;99.90
7445;DHT22;3764;48.126;11.594;2023-04-08T13:01:30;6.40;99.90
7445;DHT22;3764;48.126;11.594;2023-04-08T13:03:57;6.40;99.90
7445;DHT22;3764;48.126;11.594;2023-04-08T13:06:24;6.40;99.90
7445;DHT22;3764;48.126;11.594;2023-04-08T13:08:52;6.40;99.90
7445;DHT22;3764;48.126;11.594;2023-04-08T13:11:19;6.40;99.90
7445;DHT22;3764;48.126;11.594;2023-04-08T13:13:47;6.40;99.90
7445;DHT22;3764;48.126;11.594;2023-04-08T13:16:15;6.40;99.90
7445;DHT22;3764;48.126;11.594;2023-04-08T13:18:43;6.40;99.90
7445;DHT22;3764;48.126;11.594;2023-04-08T13:21:10;6.30;99.90
7445;DHT22;3764;48.126;11.594;2023-04-08T13:23:37;6.30;99.90
7445;DHT22;3764;48.126;11.594;2023-04-08T13:26:04;6.20;99.90
7445;DHT22;3764;48.126;11.594;2023-04-08T13:28:31;6.20;99.90
7445;DHT22;3764;48.126;11.594;2023-04-08T13:30:58;6.20;99.90
7445;DHT22;3764;48.126;11.594;2023-04-08T13:33:26;6.20;99.90
7445;DHT22;3764;48.126;11.594;2023-04-08T13:35:54;6.20;99.90
7445;DHT22;3764;48.126;11.594;2023-04-08T13:38:21;6.10;99.90
7445;DHT22;3764;48.126;11.594;2023-04-08T13:40:48;6.10;99.90
7445;DHT22;3764;48.126;11.594;2023-04-08T13:43:15;6.10;99.90
7445;DHT22;3764;48.126;11.594;2023-04-08T13:45:42;6.10;99.90
7445;DHT22;3764;48.126;11.594;2023-04-08T13:48:10;6.10;99.90
7445;DHT22;3764;48.126;11.594;2023-04-08T13:50:39;6.10;99.90
7445;DHT22;3764;48.126;11.594;2023-04-08T13:53:07;6.10;99.90
7445;DHT22;3764;48.126;11.594;2023-04-08T13:55:34;6.10;99.90
7445;DHT22;3764;48.126;11.594;2023-04-08T13:58:01;6.10;99.90
7445;DHT22;3764;48.126;11.594;2023-04-08T14:00:28;6.10;99.90
7445;DHT22;3764;48.126;11.594;2023-04-08T14:02:56;6.10;99.90
7445;DHT22;3764;48.126;11.594;2023-04-08T14:05:23;6.00;99.90
7445;DHT22;3764;48.126;11.594;2023-04-08T14:07:51;6.10;99.90
7445;DHT22;3764;48.126;11.594;2023-04-08T14:10:18;6.10;99.90
7445;DHT22;3764;48.126;11.594;2023-04-08T14:12:45;6.00;99.90
7445;DHT22;3764;48.126;11.594;2023-04-08T14:15:12;6.00;99.90
7445;DHT22;3764;48.126;11.594;2023-04-08T14:17:39;6.10;99.90
7445;DHT22;3764;48.126;11.594;2023-04-08T14:20:07;6.10;99.90
7445;DHT22;3764;48.126;11.594;2023-04-08T14:22:34;6.10;99.90
7445;DHT22;3764;48.126;11.594;2023-04-08T14:25:03;6.10;99.90
7445;DHT22;3764;48.126;11.594;2023-04-08T14:27:30;6.10;99.90
7445;DHT22;3764;48.126;11.594;2023-04-08T14:29:58;6.10;99.90
7445;DHT22;3764;48.126;11.594;2023-04-08T14:32:25;6.10;99.90
7445;DHT22;3764;48.126;11.594;2023-04-08T14:34:52;6.10;99.90
7445;DHT22;3764;48.126;11.594;2023-04-08T14:37:19;6.10;99.90
7445;DHT22;3764;48.126;11.594;2023-04-08T14:39:46;6.10;99.90
7445;DHT22;3764;48.126;11.594;2023-04-08T14:42:14;6.10;99.90
7445;DHT22;3764;48.126;11.594;2023-04-08T14:44:43;6.20;99.90
7445;DHT22;3764;48.126;11.594;2023-04-08T14:47:10;6.10;99.90
7445;DHT22;3764;48.126;11.594;2023-04-08T14:49:37;6.10;99.90
7445;DHT22;3764;48.126;11.594;2023-04-08T14:52:04;6.10;99.90
7445;DHT22;3764;48.126;11.594;2023-04-08T14:54:31;6.20;99.90
7445;DHT22;3764;48.126;11.594;2023-04-08T14:56:58;6.20;99.90
7445;DHT22;3764;48.126;11.594;2023-04-08T14:59:27;6.20;99.90
7445;DHT22;3764;48.126;11.594;2023-04-08T15:01:54;6.20;99.90
7445;DHT22;3764;48.126;11.594;2023-04-08T15:04:21;6.20;99.90
7445;DHT22;3764;48.126;11.594;2023-04-08T15:06:48;6.20;99.90
7445;DHT22;3764;48.126;11.594;2023-04-08T15:09:15;6.20;99.90
7445;DHT22;3764;48.126;11.594;2023-04-08T15:11:42;6.20;99.90
7445;DHT22;3764;48.126;11.594;2023-04-08T15:14:09;6.20;99.90
7445;DHT22;3764;48.126;11.594;2023-04-08T15:16:38;6.20;99.90
7445;DHT22;3764;48.126;11.594;2023-04-08T15:19:05;6.20;99.90
7445;DHT22;3764;48.126;11.594;2023-04-08T15:21:32;6.20;99.90
7445;DHT22;3764;48.126;11.594;2023-04-08T15:23:59;6.20;99.90
7445;DHT22;3764;48.126;11.594;2023-04-08T15:26:26;6.20;99.90
7445;DHT22;3764;48.126;11.594;2023-04-08T15:28:53;6.20;99.90
7445;DHT22;3764;48.126;11.594;2023-04-08T15:31:22;6.20;99.90
7445;DHT22;3764;48.126;11.594;2023-04-08T15:33:50;6.20;99.90
7445;DHT22;3764;48.126;11.594;2023-04-08T15:36:17;6.20;99.90
7445;DHT22;3764;48.126;11.594;2023-04-08T15:38:45;6.20;99.90
7445;DHT22;3764;48.126;11.594;2023-04-08T15:41:15;6.20;99.90
7445;DHT22;3764;48.126;11.594;2023-04-08T15:43:44;6.20;99.90
7445;DHT22;3764;48.126;11.594;2023-04-08T15:46:15;6.20;99.90
7445;DHT22;3764;48.126;11.594;2023-04-08T15:48:42;6.30;99.90
7445;DHT22;3764;48.126;11.594;2023-04-08T15:51:11;6.30;99.90
7445;DHT22;3764;48.126;11.594;2023-04-08T15:53:38;6.30;99.90
7445;DHT22;3764;48.126;11.594;2023-04-08T15:56:05;6.30;99.90
7445;DHT22;3764;48.126;11.594;2023-04-08T15:58:33;6.40;99.90
7445;DHT22;3764;48.126;11.594;2023-04-08T16:01:00;6.40;99.90
7445;DHT22;3764;48.126;11.594;2023-04-08T16:03:27;6.40;99.90
7445;DHT22;3764;48.126;11.594;2023-04-08T16:05:54;6.30;99.90
7445;DHT22;3764;48.126;11.594;2023-04-08T16:08:22;6.40;99.90